createdAt,value
2023-02-05T00:00:25.014Z,3.30
2023-02-05T00:05:29.005Z,3.26
2023-02-05T00:10:33.765Z,3.22
2023-02-05T00:15:39.513Z,3.17
2023-02-05T00:20:47.819Z,3.14
2023-02-05T00:25:51.740Z,3.12
2023-02-05T00:31:07.108Z,3.10
2023-02-05T00:36:12.787Z,3.07
2023-02-05T00:41:19.379Z,3.07
2023-02-05T00:46:23.009Z,3.06
2023-02-05T00:51:24.816Z,3.05
2023-02-05T00:56:29.869Z,3.00
2023-02-05T01:01:31.728Z,2.96
2023-02-05T01:06:33.281Z,2.90
2023-02-05T01:11:34.974Z,2.83
2023-02-05T01:16:40.068Z,2.79
2023-02-05T01:21:44.014Z,2.75
2023-02-05T01:26:46.695Z,2.68
2023-02-05T01:32:04.136Z,2.64
2023-02-05T01:37:06.647Z,2.62
2023-02-05T01:42:18.818Z,2.58
2023-02-05T01:47:23.711Z,2.55
2023-02-05T01:52:29.904Z,2.54
2023-02-05T01:57:36.629Z,2.53
2023-02-05T02:02:38.457Z,2.51
2023-02-05T02:07:40.822Z,2.49
2023-02-05T02:12:53.368Z,2.46
2023-02-05T02:18:22.219Z,2.45
2023-02-05T02:23:50.930Z,2.41
2023-02-05T02:29:01.724Z,2.40
2023-02-05T02:34:20.226Z,2.38
2023-02-05T02:39:33.055Z,2.35
2023-02-05T02:44:52.383Z,2.33
2023-02-05T02:50:06.636Z,2.32
2023-02-05T02:55:12.721Z,2.29
2023-02-05T03:00:33.272Z,2.27
2023-02-05T03:05:43.066Z,2.26
2023-02-05T03:10:59.226Z,2.21
2023-02-05T03:16:03.628Z,2.14
2023-02-05T03:21:21.242Z,2.10
2023-02-05T03:26:36.825Z,2.06
2023-02-05T03:32:14.641Z,2.00
2023-02-05T03:37:27.679Z,1.97
2023-02-05T03:42:34.050Z,1.94
2023-02-05T03:47:55.024Z,1.90
2023-02-05T03:53:15.460Z,1.88
2023-02-05T03:58:27.379Z,1.87
2023-02-05T04:03:30.419Z,1.86
2023-02-05T04:08:35.604Z,1.89
2023-02-05T04:13:44.504Z,1.90
2023-02-05T04:18:54.361Z,1.93
2023-02-05T04:23:57.400Z,1.95
2023-02-05T04:29:04.546Z,1.96
2023-02-05T04:34:14.956Z,1.97
2023-02-05T04:39:22.199Z,1.97
2023-02-05T04:44:28.308Z,1.97
2023-02-05T04:49:35.131Z,1.97
2023-02-05T04:54:44.075Z,1.95
2023-02-05T04:59:50.206Z,1.93
2023-02-05T05:04:51.781Z,1.95
2023-02-05T05:09:54.612Z,1.96
2023-02-05T05:14:58.516Z,1.96
2023-02-05T05:20:05.341Z,1.99
2023-02-05T05:25:21.234Z,2.01
2023-02-05T05:30:27.625Z,2.03
2023-02-05T05:35:34.644Z,2.03
2023-02-05T05:41:01.418Z,2.02
2023-02-05T05:46:04.035Z,2.01
2023-02-05T05:51:08.307Z,2.02
2023-02-05T05:56:13.849Z,2.01
2023-02-05T06:01:19.027Z,1.97
2023-02-05T06:06:26.804Z,1.91
2023-02-05T06:11:28.307Z,1.88
2023-02-05T06:16:38.608Z,1.84
2023-02-05T06:21:51.696Z,1.80
2023-02-05T06:26:55.333Z,1.75
2023-02-05T06:32:00.586Z,1.70
2023-02-05T06:37:26.830Z,1.64
2023-02-05T06:42:44.269Z,1.60
2023-02-05T06:47:53.226Z,1.55
2023-02-05T06:52:55.288Z,1.51
2023-02-05T06:57:56.875Z,1.49
2023-02-05T07:03:03.279Z,1.48
2023-02-05T07:08:09.399Z,1.46
2023-02-05T07:13:13.880Z,1.48
2023-02-05T07:18:15.696Z,1.51
2023-02-05T07:23:28.247Z,1.55
2023-02-05T07:28:33.781Z,1.61
2023-02-05T07:33:40.619Z,1.69
2023-02-05T07:38:52.289Z,1.76
2023-02-05T07:43:55.465Z,1.84
2023-02-05T07:48:59.516Z,1.90
2023-02-05T07:54:08.097Z,1.97
2023-02-05T07:59:13.895Z,2.03
2023-02-05T08:04:15.483Z,2.10
2023-02-05T08:09:19.240Z,2.16
2023-02-05T08:14:24.220Z,2.21
2023-02-05T08:19:32.946Z,2.25
2023-02-05T08:24:35.637Z,2.32
2023-02-05T08:29:42.522Z,2.42
2023-02-05T08:34:54.589Z,2.54
2023-02-05T08:39:58.460Z,2.68
2023-02-05T08:45:11.370Z,2.82
2023-02-05T08:50:13.928Z,2.98
2023-02-05T08:55:18.271Z,3.11
2023-02-05T09:00:26.186Z,3.22
2023-02-05T09:05:32.853Z,3.29
2023-02-05T09:10:46.067Z,3.37
2023-02-05T09:15:48.707Z,3.50
2023-02-05T09:20:54.504Z,3.56
2023-02-05T09:26:00.703Z,3.66
2023-02-05T09:31:10.062Z,3.75
2023-02-05T09:36:22.307Z,3.80
2023-02-05T09:41:47.025Z,3.86
2023-02-05T09:47:13.334Z,3.92
2023-02-05T09:52:24.316Z,3.98
2023-02-05T09:57:59.918Z,4.07
2023-02-05T10:03:06.832Z,4.14
2023-02-05T10:08:17.401Z,4.23
2023-02-05T10:13:27.956Z,4.35
2023-02-05T10:18:48.399Z,4.42
2023-02-05T10:24:15.252Z,4.50
2023-02-05T10:29:37.063Z,4.55
2023-02-05T10:35:05.187Z,4.60
2023-02-05T10:40:20.248Z,4.62
2023-02-05T10:45:30.210Z,4.67
2023-02-05T10:50:47.248Z,4.69
2023-02-05T10:55:49.749Z,4.71
2023-02-05T11:00:54.160Z,4.75
2023-02-05T11:05:56.174Z,4.81
2023-02-05T11:11:00.094Z,4.85
2023-02-05T11:16:14.267Z,4.93
2023-02-05T11:21:20.494Z,5.00
2023-02-05T11:26:31.640Z,5.08
2023-02-05T11:31:35.927Z,5.14
2023-02-05T11:37:01.345Z,5.19
2023-02-05T11:42:23.853Z,5.23
2023-02-05T11:47:35.960Z,5.29
2023-02-05T11:52:40.292Z,5.32
2023-02-05T11:57:44.050Z,5.33
2023-02-05T12:02:50.073Z,5.37
2023-02-05T12:07:55.334Z,5.39
2023-02-05T12:13:10.305Z,5.42
2023-02-05T12:18:18.814Z,5.44
2023-02-05T12:23:38.555Z,5.48
2023-02-05T12:29:25.933Z,5.51
2023-02-05T12:34:54.304Z,5.52
2023-02-05T12:40:35.304Z,5.52
2023-02-05T12:45:56.896Z,5.54
2023-02-05T12:51:08.654Z,5.55
2023-02-05T12:56:25.324Z,5.55
2023-02-05T13:01:46.656Z,5.57
2023-02-05T13:06:59.679Z,5.60
2023-02-05T13:12:10.372Z,5.62
2023-02-05T13:17:36.256Z,5.63
2023-02-05T13:23:02.406Z,5.65
2023-02-05T13:28:40.553Z,5.67
2023-02-05T13:33:51.417Z,5.65
2023-02-05T13:39:06.675Z,5.64
2023-02-05T13:45:00.198Z,5.64
2023-02-05T13:50:35.714Z,5.62
2023-02-05T13:55:53.366Z,5.60
2023-02-05T14:01:03.634Z,5.59
2023-02-05T14:06:16.485Z,5.57
2023-02-05T14:11:24.561Z,5.56
2023-02-05T14:16:29.378Z,5.56
2023-02-05T14:21:31.175Z,5.57
2023-02-05T14:26:56.169Z,5.57
2023-02-05T14:32:02.404Z,5.55
2023-02-05T14:37:22.239Z,5.54
2023-02-05T14:42:35.378Z,5.51
2023-02-05T14:47:41.230Z,5.48
2023-02-05T14:52:54.577Z,5.46
2023-02-05T14:58:04.127Z,5.43
2023-02-05T15:03:29.914Z,5.37
2023-02-05T15:08:34.606Z,5.34
2023-02-05T15:13:43.195Z,5.32
2023-02-05T15:18:54.053Z,5.28
2023-02-05T15:24:15.315Z,5.26
2023-02-05T15:29:27.866Z,5.19
2023-02-05T15:34:53.719Z,5.14
2023-02-05T15:40:13.097Z,5.11
2023-02-05T15:45:33.588Z,5.10
2023-02-05T15:50:42.252Z,5.11
2023-02-05T15:55:52.476Z,5.09
2023-02-05T16:01:05.210Z,5.07
2023-02-05T16:06:17.598Z,5.06
2023-02-05T16:11:46.250Z,5.03
2023-02-05T16:17:18.594Z,4.99
2023-02-05T16:22:44.203Z,4.97
2023-02-05T16:27:55.140Z,4.95
2023-02-05T16:33:03.837Z,4.94
2023-02-05T16:38:19.314Z,4.90
2023-02-05T16:43:38.778Z,4.88
2023-02-05T16:48:52.272Z,4.87
2023-02-05T16:53:59.845Z,4.84
2023-02-05T16:59:25.893Z,4.81
2023-02-05T17:04:40.069Z,4.78
2023-02-05T17:09:41.935Z,4.76
2023-02-05T17:14:57.561Z,4.73
2023-02-05T17:20:28.991Z,4.69
2023-02-05T17:25:55.296Z,4.64
2023-02-05T17:31:01.925Z,4.57
2023-02-05T17:36:09.620Z,4.54
2023-02-05T17:41:51.541Z,4.49
2023-02-05T17:47:00.117Z,4.42
2023-02-05T17:52:02.996Z,4.38
2023-02-05T17:57:16.950Z,4.32
2023-02-05T18:02:21.361Z,4.28
2023-02-05T18:07:37.077Z,4.24
2023-02-05T18:12:52.024Z,4.18
2023-02-05T18:17:56.053Z,4.12
2023-02-05T18:23:00.748Z,4.06
2023-02-05T18:28:02.528Z,4.02
2023-02-05T18:33:06.391Z,3.99
2023-02-05T18:38:13.154Z,3.94
2023-02-05T18:43:17.528Z,3.92
2023-02-05T18:48:21.021Z,3.87
2023-02-05T18:53:27.882Z,3.81
2023-02-05T18:58:31.874Z,3.76
2023-02-05T19:03:41.796Z,3.69
2023-02-05T19:08:44.234Z,3.65
2023-02-05T19:13:46.848Z,3.61
2023-02-05T19:18:55.873Z,3.55
2023-02-05T19:24:02.402Z,3.50
2023-02-05T19:29:07.380Z,3.47
2023-02-05T19:34:14.342Z,3.42
2023-02-05T19:39:18.010Z,3.37
2023-02-05T19:44:19.814Z,3.34
2023-02-05T19:49:23.900Z,3.30
2023-02-05T19:54:27.584Z,3.26
2023-02-05T19:59:33.893Z,3.24
2023-02-05T20:04:42.386Z,3.21
2023-02-05T20:09:44.122Z,3.20
2023-02-05T20:14:48.004Z,3.20
2023-02-05T20:20:12.365Z,3.17
2023-02-05T20:25:21.824Z,3.11
2023-02-05T20:30:53.899Z,3.07
2023-02-05T20:35:55.621Z,3.02
2023-02-05T20:40:59.344Z,3.00
2023-02-05T20:46:06.832Z,2.94
2023-02-05T20:51:13.627Z,2.90
2023-02-05T20:56:25.426Z,2.86
2023-02-05T21:01:34.589Z,2.81
2023-02-05T21:06:41.211Z,2.78
2023-02-05T21:11:45.076Z,2.74
2023-02-05T21:16:46.687Z,2.71
2023-02-05T21:21:49.895Z,2.68
2023-02-05T21:26:51.651Z,2.62
2023-02-05T21:31:56.138Z,2.58
2023-02-05T21:36:57.823Z,2.52
2023-02-05T21:42:05.840Z,2.47
2023-02-05T21:47:08.613Z,2.42
2023-02-05T21:52:10.157Z,2.38
2023-02-05T21:57:14.787Z,2.34
2023-02-05T22:02:18.723Z,2.28
2023-02-05T22:07:20.977Z,2.24
2023-02-05T22:12:23.691Z,2.20
2023-02-05T22:17:31.442Z,2.16
2023-02-05T22:22:35.669Z,2.15
2023-02-05T22:27:40.091Z,2.10
2023-02-05T22:32:48.650Z,2.07
2023-02-05T22:37:59.432Z,2.03
2023-02-05T22:43:04.510Z,1.99
2023-02-05T22:48:13.498Z,1.96
2023-02-05T22:53:17.223Z,1.91
2023-02-05T22:58:20.044Z,1.87
2023-02-05T23:03:24.788Z,1.81
2023-02-05T23:08:28.907Z,1.76
2023-02-05T23:13:30.462Z,1.72
2023-02-05T23:18:34.465Z,1.69
2023-02-05T23:23:38.156Z,1.66
2023-02-05T23:28:39.707Z,1.66
2023-02-05T23:33:41.945Z,1.65
2023-02-05T23:38:46.351Z,1.62
2023-02-05T23:43:47.951Z,1.58
2023-02-05T23:48:51.519Z,1.54
2023-02-05T23:53:59.831Z,1.51
2023-02-05T23:59:08.333Z,1.49
